sensor_id;sensor_type;location;lat;lon;timestamp;P1;durP1;ratioP1;P2;durP2;ratioP2
70342;SDS011;57767;42.068;24.752;2023-05-10T00:03:55;9.45;;;5.93;;
70342;SDS011;57767;42.068;24.752;2023-05-10T00:04:57;16.15;;;6.40;;
70342;SDS011;57767;42.068;24.752;2023-05-10T00:05:58;11.63;;;6.20;;
70342;SDS011;57767;42.068;24.752;2023-05-10T00:07:00;8.52;;;5.68;;
70342;SDS011;57767;42.068;24.752;2023-05-10T00:08:02;11.60;;;5.82;;
70342;SDS011;57767;42.068;24.752;2023-05-10T00:09:04;9.98;;;6.70;;
70342;SDS011;57767;42.068;24.752;2023-05-10T00:10:06;14.27;;;6.65;;
70342;SDS011;57767;42.068;24.752;2023-05-10T00:11:08;11.82;;;6.40;;
70342;SDS011;57767;42.068;24.752;2023-05-10T00:12:09;12.60;;;6.85;;
70342;SDS011;57767;42.068;24.752;2023-05-10T00:13:11;13.13;;;6.60;;
70342;SDS011;57767;42.068;24.752;2023-05-10T00:14:13;8.35;;;6.63;;
70342;SDS011;57767;42.068;24.752;2023-05-10T00:15:14;13.27;;;7.10;;
70342;SDS011;57767;42.068;24.752;2023-05-10T00:16:16;9.95;;;6.20;;
70342;SDS011;57767;42.068;24.752;2023-05-10T00:17:17;9.07;;;6.05;;
70342;SDS011;57767;42.068;24.752;2023-05-10T00:18:19;11.65;;;6.15;;
70342;SDS011;57767;42.068;24.752;2023-05-10T00:19:21;6.82;;;6.15;;
70342;SDS011;57767;42.068;24.752;2023-05-10T00:20:23;10.80;;;6.60;;
70342;SDS011;57767;42.068;24.752;2023-05-10T00:21:25;10.40;;;6.60;;
70342;SDS011;57767;42.068;24.752;2023-05-10T00:22:27;10.43;;;6.15;;
70342;SDS011;57767;42.068;24.752;2023-05-10T00:23:28;9.25;;;6.78;;
70342;SDS011;57767;42.068;24.752;2023-05-10T00:24:30;11.50;;;6.18;;
70342;SDS011;57767;42.068;24.752;2023-05-10T00:25:32;8.95;;;6.30;;
70342;SDS011;57767;42.068;24.752;2023-05-10T00:26:34;12.00;;;6.95;;
70342;SDS011;57767;42.068;24.752;2023-05-10T00:27:35;8.95;;;6.47;;
70342;SDS011;57767;42.068;24.752;2023-05-10T00:28:37;12.10;;;6.85;;
70342;SDS011;57767;42.068;24.752;2023-05-10T00:29:39;9.48;;;6.43;;
70342;SDS011;57767;42.068;24.752;2023-05-10T00:30:41;9.60;;;6.78;;
70342;SDS011;57767;42.068;24.752;2023-05-10T00:31:42;10.27;;;6.60;;
70342;SDS011;57767;42.068;24.752;2023-05-10T00:32:44;10.00;;;6.28;;
70342;SDS011;57767;42.068;24.752;2023-05-10T00:33:46;9.60;;;6.72;;
70342;SDS011;57767;42.068;24.752;2023-05-10T00:34:48;8.93;;;7.00;;
70342;SDS011;57767;42.068;24.752;2023-05-10T00:35:50;10.85;;;7.35;;
70342;SDS011;57767;42.068;24.752;2023-05-10T00:36:51;13.07;;;6.75;;
70342;SDS011;57767;42.068;24.752;2023-05-10T00:37:53;9.75;;;6.85;;
70342;SDS011;57767;42.068;24.752;2023-05-10T00:38:55;14.30;;;6.97;;
70342;SDS011;57767;42.068;24.752;2023-05-10T00:39:57;12.38;;;7.50;;
70342;SDS011;57767;42.068;24.752;2023-05-10T00:40:58;9.02;;;7.15;;
70342;SDS011;57767;42.068;24.752;2023-05-10T00:42:00;12.48;;;7.03;;
70342;SDS011;57767;42.068;24.752;2023-05-10T00:43:02;13.98;;;7.47;;
70342;SDS011;57767;42.068;24.752;2023-05-10T00:44:04;10.02;;;7.68;;
70342;SDS011;57767;42.068;24.752;2023-05-10T00:45:06;14.15;;;7.20;;
70342;SDS011;57767;42.068;24.752;2023-05-10T00:46:09;11.80;;;7.65;;
70342;SDS011;57767;42.068;24.752;2023-05-10T00:47:11;9.73;;;7.38;;
70342;SDS011;57767;42.068;24.752;2023-05-10T00:48:13;10.60;;;7.75;;
70342;SDS011;57767;42.068;24.752;2023-05-10T00:49:15;14.85;;;8.13;;
70342;SDS011;57767;42.068;24.752;2023-05-10T00:50:17;11.48;;;8.00;;
70342;SDS011;57767;42.068;24.752;2023-05-10T00:51:19;12.00;;;7.75;;
70342;SDS011;57767;42.068;24.752;2023-05-10T00:52:22;10.82;;;8.25;;
70342;SDS011;57767;42.068;24.752;2023-05-10T00:53:24;12.25;;;8.30;;
70342;SDS011;57767;42.068;24.752;2023-05-10T00:54:26;17.10;;;8.80;;
70342;SDS011;57767;42.068;24.752;2023-05-10T00:55:28;9.75;;;7.70;;
70342;SDS011;57767;42.068;24.752;2023-05-10T00:56:31;14.98;;;8.32;;
70342;SDS011;57767;42.068;24.752;2023-05-10T00:57:33;11.57;;;8.32;;
70342;SDS011;57767;42.068;24.752;2023-05-10T00:58:34;9.90;;;8.25;;
70342;SDS011;57767;42.068;24.752;2023-05-10T00:59:36;14.18;;;8.48;;
70342;SDS011;57767;42.068;24.752;2023-05-10T01:00:38;14.68;;;8.65;;
70342;SDS011;57767;42.068;24.752;2023-05-10T01:01:44;10.90;;;8.25;;
70342;SDS011;57767;42.068;24.752;2023-05-10T01:02:46;13.32;;;8.82;;
70342;SDS011;57767;42.068;24.752;2023-05-10T01:03:49;13.10;;;9.13;;
70342;SDS011;57767;42.068;24.752;2023-05-10T01:04:52;10.90;;;8.40;;
70342;SDS011;57767;42.068;24.752;2023-05-10T01:05:54;16.92;;;9.77;;
70342;SDS011;57767;42.068;24.752;2023-05-10T01:06:56;12.75;;;8.85;;
70342;SDS011;57767;42.068;24.752;2023-05-10T01:07:58;11.88;;;8.95;;
70342;SDS011;57767;42.068;24.752;2023-05-10T01:09:00;16.00;;;9.23;;
70342;SDS011;57767;42.068;24.752;2023-05-10T01:10:01;15.80;;;8.93;;
70342;SDS011;57767;42.068;24.752;2023-05-10T01:11:03;17.23;;;9.35;;
70342;SDS011;57767;42.068;24.752;2023-05-10T01:12:05;17.50;;;9.25;;
70342;SDS011;57767;42.068;24.752;2023-05-10T01:13:08;13.50;;;9.20;;
70342;SDS011;57767;42.068;24.752;2023-05-10T01:14:11;15.13;;;9.15;;
70342;SDS011;57767;42.068;24.752;2023-05-10T01:15:13;16.75;;;9.68;;
70342;SDS011;57767;42.068;24.752;2023-05-10T01:16:16;14.23;;;9.88;;
70342;SDS011;57767;42.068;24.752;2023-05-10T01:17:18;16.88;;;9.70;;
70342;SDS011;57767;42.068;24.752;2023-05-10T01:18:21;15.07;;;9.63;;
70342;SDS011;57767;42.068;24.752;2023-05-10T01:19:25;12.20;;;9.45;;
70342;SDS011;57767;42.068;24.752;2023-05-10T01:20:41;15.45;;;9.70;;
70342;SDS011;57767;42.068;24.752;2023-05-10T01:25:28;14.75;;;9.30;;
70342;SDS011;57767;42.068;24.752;2023-05-10T01:31:00;15.70;;;10.07;;
70342;SDS011;57767;42.068;24.752;2023-05-10T01:34:27;12.40;;;10.25;;
70342;SDS011;57767;42.068;24.752;2023-05-10T01:35:54;12.30;;;9.70;;
70342;SDS011;57767;42.068;24.752;2023-05-10T01:37:03;11.75;;;10.50;;
70342;SDS011;57767;42.068;24.752;2023-05-10T01:39:27;11.93;;;9.90;;
70342;SDS011;57767;42.068;24.752;2023-05-10T01:42:53;15.70;;;10.93;;
70342;SDS011;57767;42.068;24.752;2023-05-10T01:45:20;12.95;;;10.60;;
70342;SDS011;57767;42.068;24.752;2023-05-10T01:46:38;14.65;;;11.38;;
70342;SDS011;57767;42.068;24.752;2023-05-10T01:47:50;14.40;;;10.55;;
70342;SDS011;57767;42.068;24.752;2023-05-10T01:49:00;14.15;;;10.73;;
70342;SDS011;57767;42.068;24.752;2023-05-10T01:50:06;13.45;;;10.98;;
70342;SDS011;57767;42.068;24.752;2023-05-10T01:52:36;14.98;;;10.68;;
70342;SDS011;57767;42.068;24.752;2023-05-10T01:53:42;14.35;;;10.07;;
70342;SDS011;57767;42.068;24.752;2023-05-10T01:54:49;15.10;;;11.13;;
70342;SDS011;57767;42.068;24.752;2023-05-10T01:56:10;17.52;;;10.52;;
70342;SDS011;57767;42.068;24.752;2023-05-10T01:57:13;13.68;;;10.05;;
70342;SDS011;57767;42.068;24.752;2023-05-10T01:58:21;16.17;;;10.75;;
70342;SDS011;57767;42.068;24.752;2023-05-10T01:59:28;17.40;;;10.88;;
70342;SDS011;57767;42.068;24.752;2023-05-10T02:00:33;19.65;;;11.40;;
70342;SDS011;57767;42.068;24.752;2023-05-10T02:01:36;15.95;;;11.52;;
70342;SDS011;57767;42.068;24.752;2023-05-10T02:02:46;17.13;;;11.27;;
70342;SDS011;57767;42.068;24.752;2023-05-10T02:03:50;19.15;;;11.43;;
70342;SDS011;57767;42.068;24.752;2023-05-10T02:04:53;20.23;;;12.30;;
70342;SDS011;57767;42.068;24.752;2023-05-10T02:05:56;15.07;;;11.20;;
70342;SDS011;57767;42.068;24.752;2023-05-10T02:06:59;14.60;;;10.73;;
70342;SDS011;57767;42.068;24.752;2023-05-10T02:08:02;16.98;;;11.68;;
70342;SDS011;57767;42.068;24.752;2023-05-10T02:09:07;18.60;;;11.38;;
70342;SDS011;57767;42.068;24.752;2023-05-10T02:10:12;16.33;;;10.80;;
70342;SDS011;57767;42.068;24.752;2023-05-10T02:11:16;14.35;;;11.23;;
70342;SDS011;57767;42.068;24.752;2023-05-10T02:12:19;18.45;;;11.68;;
70342;SDS011;57767;42.068;24.752;2023-05-10T02:13:24;20.55;;;11.48;;
70342;SDS011;57767;42.068;24.752;2023-05-10T02:14:28;14.73;;;11.32;;
70342;SDS011;57767;42.068;24.752;2023-05-10T02:15:33;15.70;;;10.95;;
70342;SDS011;57767;42.068;24.752;2023-05-10T02:16:36;15.60;;;11.35;;
70342;SDS011;57767;42.068;24.752;2023-05-10T02:17:40;15.68;;;11.30;;
70342;SDS011;57767;42.068;24.752;2023-05-10T02:18:43;16.40;;;11.90;;
70342;SDS011;57767;42.068;24.752;2023-05-10T02:19:47;17.33;;;11.13;;
70342;SDS011;57767;42.068;24.752;2023-05-10T02:20:49;17.77;;;12.20;;
70342;SDS011;57767;42.068;24.752;2023-05-10T02:21:53;16.45;;;10.65;;
70342;SDS011;57767;42.068;24.752;2023-05-10T02:22:57;16.25;;;11.05;;
70342;SDS011;57767;42.068;24.752;2023-05-10T02:23:59;16.88;;;11.85;;
70342;SDS011;57767;42.068;24.752;2023-05-10T02:25:04;17.42;;;11.35;;
70342;SDS011;57767;42.068;24.752;2023-05-10T02:26:07;17.08;;;11.07;;
70342;SDS011;57767;42.068;24.752;2023-05-10T02:27:10;17.65;;;11.25;;
70342;SDS011;57767;42.068;24.752;2023-05-10T02:28:13;15.10;;;12.20;;
70342;SDS011;57767;42.068;24.752;2023-05-10T02:29:16;20.75;;;11.40;;
70342;SDS011;57767;42.068;24.752;2023-05-10T02:30:19;17.10;;;11.13;;
70342;SDS011;57767;42.068;24.752;2023-05-10T02:31:22;17.58;;;12.13;;
70342;SDS011;57767;42.068;24.752;2023-05-10T02:32:25;15.10;;;11.43;;
70342;SDS011;57767;42.068;24.752;2023-05-10T02:33:28;17.98;;;11.65;;
70342;SDS011;57767;42.068;24.752;2023-05-10T02:34:32;15.43;;;11.80;;
70342;SDS011;57767;42.068;24.752;2023-05-10T02:35:34;19.95;;;12.35;;
70342;SDS011;57767;42.068;24.752;2023-05-10T02:36:37;16.65;;;11.45;;
70342;SDS011;57767;42.068;24.752;2023-05-10T02:37:41;18.70;;;11.95;;
70342;SDS011;57767;42.068;24.752;2023-05-10T02:38:45;18.58;;;12.18;;
70342;SDS011;57767;42.068;24.752;2023-05-10T02:39:52;13.82;;;11.18;;
70342;SDS011;57767;42.068;24.752;2023-05-10T02:40:56;17.08;;;13.60;;
70342;SDS011;57767;42.068;24.752;2023-05-10T02:41:59;17.35;;;12.80;;
70342;SDS011;57767;42.068;24.752;2023-05-10T02:43:03;21.52;;;12.05;;
70342;SDS011;57767;42.068;24.752;2023-05-10T02:44:07;19.17;;;13.30;;
70342;SDS011;57767;42.068;24.752;2023-05-10T02:45:11;18.52;;;13.32;;
70342;SDS011;57767;42.068;24.752;2023-05-10T02:46:16;14.90;;;12.13;;
70342;SDS011;57767;42.068;24.752;2023-05-10T02:47:18;19.73;;;12.30;;
70342;SDS011;57767;42.068;24.752;2023-05-10T02:48:20;19.27;;;12.35;;
70342;SDS011;57767;42.068;24.752;2023-05-10T02:49:22;16.17;;;12.00;;
70342;SDS011;57767;42.068;24.752;2023-05-10T02:50:25;16.85;;;12.43;;
70342;SDS011;57767;42.068;24.752;2023-05-10T02:51:30;20.05;;;12.82;;
70342;SDS011;57767;42.068;24.752;2023-05-10T02:52:40;17.90;;;12.73;;
70342;SDS011;57767;42.068;24.752;2023-05-10T02:53:45;19.02;;;13.38;;
70342;SDS011;57767;42.068;24.752;2023-05-10T02:54:48;21.17;;;13.10;;
70342;SDS011;57767;42.068;24.752;2023-05-10T02:55:53;15.43;;;13.48;;
70342;SDS011;57767;42.068;24.752;2023-05-10T02:57:00;22.00;;;13.23;;
70342;SDS011;57767;42.068;24.752;2023-05-10T02:58:05;16.17;;;12.50;;
70342;SDS011;57767;42.068;24.752;2023-05-10T02:59:07;14.13;;;12.63;;
70342;SDS011;57767;42.068;24.752;2023-05-10T03:00:09;21.48;;;13.70;;
70342;SDS011;57767;42.068;24.752;2023-05-10T03:01:11;17.83;;;12.85;;
70342;SDS011;57767;42.068;24.752;2023-05-10T03:02:13;16.40;;;13.13;;
70342;SDS011;57767;42.068;24.752;2023-05-10T03:03:15;20.60;;;13.60;;
70342;SDS011;57767;42.068;24.752;2023-05-10T03:04:17;20.00;;;13.10;;
70342;SDS011;57767;42.068;24.752;2023-05-10T03:05:19;19.70;;;15.85;;
70342;SDS011;57767;42.068;24.752;2023-05-10T03:06:21;20.67;;;14.30;;
70342;SDS011;57767;42.068;24.752;2023-05-10T03:07:23;18.55;;;12.70;;
70342;SDS011;57767;42.068;24.752;2023-05-10T03:08:25;17.95;;;13.02;;
70342;SDS011;57767;42.068;24.752;2023-05-10T03:09:30;16.05;;;12.75;;
70342;SDS011;57767;42.068;24.752;2023-05-10T03:10:32;22.20;;;13.52;;
70342;SDS011;57767;42.068;24.752;2023-05-10T03:19:55;20.65;;;13.25;;
70342;SDS011;57767;42.068;24.752;2023-05-10T03:20:59;17.88;;;13.52;;
70342;SDS011;57767;42.068;24.752;2023-05-10T03:22:08;18.40;;;13.45;;
70342;SDS011;57767;42.068;24.752;2023-05-10T03:23:13;19.92;;;13.63;;
70342;SDS011;57767;42.068;24.752;2023-05-10T03:24:15;21.33;;;13.48;;
70342;SDS011;57767;42.068;24.752;2023-05-10T03:25:20;21.13;;;14.02;;
70342;SDS011;57767;42.068;24.752;2023-05-10T03:26:26;21.38;;;13.95;;
70342;SDS011;57767;42.068;24.752;2023-05-10T03:27:30;22.20;;;14.55;;
70342;SDS011;57767;42.068;24.752;2023-05-10T03:28:34;17.55;;;13.95;;
70342;SDS011;57767;42.068;24.752;2023-05-10T03:29:36;18.17;;;13.30;;
70342;SDS011;57767;42.068;24.752;2023-05-10T03:30:40;18.33;;;13.70;;
70342;SDS011;57767;42.068;24.752;2023-05-10T03:31:43;22.75;;;14.00;;
70342;SDS011;57767;42.068;24.752;2023-05-10T03:32:45;22.65;;;14.27;;
70342;SDS011;57767;42.068;24.752;2023-05-10T03:33:50;23.48;;;13.43;;
70342;SDS011;57767;42.068;24.752;2023-05-10T03:34:53;18.33;;;13.25;;
70342;SDS011;57767;42.068;24.752;2023-05-10T03:35:55;20.85;;;13.10;;
70342;SDS011;57767;42.068;24.752;2023-05-10T03:36:57;16.08;;;13.52;;
70342;SDS011;57767;42.068;24.752;2023-05-10T03:37:58;19.33;;;12.77;;
70342;SDS011;57767;42.068;24.752;2023-05-10T03:39:00;19.08;;;13.98;;
70342;SDS011;57767;42.068;24.752;2023-05-10T03:40:02;19.95;;;13.52;;
70342;SDS011;57767;42.068;24.752;2023-05-10T03:41:04;20.88;;;12.82;;
70342;SDS011;57767;42.068;24.752;2023-05-10T03:42:06;20.05;;;12.63;;
70342;SDS011;57767;42.068;24.752;2023-05-10T03:43:08;19.08;;;13.73;;
70342;SDS011;57767;42.068;24.752;2023-05-10T03:44:10;21.90;;;13.77;;
70342;SDS011;57767;42.068;24.752;2023-05-10T03:45:11;19.13;;;12.68;;
70342;SDS011;57767;42.068;24.752;2023-05-10T03:46:13;18.02;;;12.90;;
70342;SDS011;57767;42.068;24.752;2023-05-10T03:47:15;19.85;;;13.23;;
70342;SDS011;57767;42.068;24.752;2023-05-10T03:48:17;18.48;;;13.27;;
70342;SDS011;57767;42.068;24.752;2023-05-10T03:49:19;21.65;;;12.90;;
70342;SDS011;57767;42.068;24.752;2023-05-10T03:50:20;19.95;;;13.43;;
70342;SDS011;57767;42.068;24.752;2023-05-10T03:51:22;18.45;;;12.57;;
70342;SDS011;57767;42.068;24.752;2023-05-10T03:52:25;19.02;;;14.05;;
70342;SDS011;57767;42.068;24.752;2023-05-10T03:53:27;19.77;;;13.80;;
70342;SDS011;57767;42.068;24.752;2023-05-10T03:54:29;21.42;;;13.38;;
70342;SDS011;57767;42.068;24.752;2023-05-10T03:55:30;16.83;;;13.32;;
70342;SDS011;57767;42.068;24.752;2023-05-10T03:56:35;18.25;;;14.13;;
70342;SDS011;57767;42.068;24.752;2023-05-10T03:57:37;21.20;;;13.73;;
70342;SDS011;57767;42.068;24.752;2023-05-10T03:58:39;24.05;;;15.10;;
70342;SDS011;57767;42.068;24.752;2023-05-10T03:59:41;19.58;;;13.95;;
70342;SDS011;57767;42.068;24.752;2023-05-10T04:00:42;25.02;;;14.55;;
70342;SDS011;57767;42.068;24.752;2023-05-10T04:01:47;20.45;;;13.77;;
70342;SDS011;57767;42.068;24.752;2023-05-10T04:02:49;18.65;;;14.25;;
70342;SDS011;57767;42.068;24.752;2023-05-10T04:03:51;25.45;;;14.18;;
70342;SDS011;57767;42.068;24.752;2023-05-10T04:04:52;19.35;;;13.75;;
70342;SDS011;57767;42.068;24.752;2023-05-10T04:06:01;16.33;;;13.57;;
70342;SDS011;57767;42.068;24.752;2023-05-10T04:07:03;21.05;;;13.68;;
70342;SDS011;57767;42.068;24.752;2023-05-10T04:08:05;23.17;;;13.65;;
70342;SDS011;57767;42.068;24.752;2023-05-10T04:09:07;21.08;;;12.73;;
70342;SDS011;57767;42.068;24.752;2023-05-10T04:10:09;23.35;;;13.38;;
70342;SDS011;57767;42.068;24.752;2023-05-10T04:11:12;19.13;;;11.70;;
70342;SDS011;57767;42.068;24.752;2023-05-10T04:12:14;25.20;;;14.05;;
70342;SDS011;57767;42.068;24.752;2023-05-10T04:13:16;18.67;;;13.13;;
70342;SDS011;57767;42.068;24.752;2023-05-10T04:14:18;17.52;;;13.40;;
70342;SDS011;57767;42.068;24.752;2023-05-10T04:15:20;22.70;;;13.48;;
70342;SDS011;57767;42.068;24.752;2023-05-10T04:16:22;16.90;;;11.57;;
70342;SDS011;57767;42.068;24.752;2023-05-10T04:17:23;20.80;;;12.55;;
70342;SDS011;57767;42.068;24.752;2023-05-10T04:18:25;19.65;;;13.68;;
70342;SDS011;57767;42.068;24.752;2023-05-10T04:19:30;22.45;;;13.50;;
70342;SDS011;57767;42.068;24.752;2023-05-10T04:20:32;16.15;;;13.15;;
70342;SDS011;57767;42.068;24.752;2023-05-10T04:21:34;17.50;;;13.35;;
70342;SDS011;57767;42.068;24.752;2023-05-10T04:22:36;20.95;;;14.32;;
70342;SDS011;57767;42.068;24.752;2023-05-10T04:23:38;17.60;;;13.68;;
70342;SDS011;57767;42.068;24.752;2023-05-10T04:24:40;20.88;;;14.43;;
70342;SDS011;57767;42.068;24.752;2023-05-10T04:25:41;22.60;;;14.90;;
70342;SDS011;57767;42.068;24.752;2023-05-10T04:26:44;22.85;;;14.10;;
70342;SDS011;57767;42.068;24.752;2023-05-10T04:27:45;19.42;;;14.40;;
70342;SDS011;57767;42.068;24.752;2023-05-10T04:28:47;19.42;;;13.82;;
70342;SDS011;57767;42.068;24.752;2023-05-10T04:29:49;20.92;;;13.95;;
70342;SDS011;57767;42.068;24.752;2023-05-10T04:30:51;21.73;;;12.50;;
70342;SDS011;57767;42.068;24.752;2023-05-10T04:31:54;27.48;;;13.25;;
70342;SDS011;57767;42.068;24.752;2023-05-10T04:32:56;23.25;;;14.13;;
70342;SDS011;57767;42.068;24.752;2023-05-10T04:33:58;17.48;;;13.48;;
70342;SDS011;57767;42.068;24.752;2023-05-10T04:34:59;16.20;;;12.77;;
70342;SDS011;57767;42.068;24.752;2023-05-10T04:36:04;21.08;;;13.73;;
70342;SDS011;57767;42.068;24.752;2023-05-10T04:37:06;20.42;;;13.10;;
70342;SDS011;57767;42.068;24.752;2023-05-10T04:38:08;22.27;;;12.95;;
70342;SDS011;57767;42.068;24.752;2023-05-10T04:39:10;18.60;;;12.45;;
70342;SDS011;57767;42.068;24.752;2023-05-10T04:40:12;17.20;;;12.50;;
70342;SDS011;57767;42.068;24.752;2023-05-10T04:41:14;19.10;;;12.65;;
70342;SDS011;57767;42.068;24.752;2023-05-10T04:42:16;17.27;;;12.05;;
70342;SDS011;57767;42.068;24.752;2023-05-10T04:43:18;15.85;;;12.07;;
70342;SDS011;57767;42.068;24.752;2023-05-10T04:44:20;18.05;;;11.68;;
70342;SDS011;57767;42.068;24.752;2023-05-10T04:45:22;18.83;;;12.27;;
70342;SDS011;57767;42.068;24.752;2023-05-10T04:46:23;18.00;;;11.93;;
70342;SDS011;57767;42.068;24.752;2023-05-10T04:47:26;19.70;;;11.80;;
70342;SDS011;57767;42.068;24.752;2023-05-10T04:48:28;15.07;;;11.82;;
70342;SDS011;57767;42.068;24.752;2023-05-10T04:49:29;21.33;;;12.02;;
70342;SDS011;57767;42.068;24.752;2023-05-10T04:50:31;17.55;;;11.55;;
70342;SDS011;57767;42.068;24.752;2023-05-10T04:51:33;17.65;;;10.77;;
70342;SDS011;57767;42.068;24.752;2023-05-10T04:52:35;21.25;;;11.63;;
70342;SDS011;57767;42.068;24.752;2023-05-10T04:53:37;18.55;;;10.38;;
70342;SDS011;57767;42.068;24.752;2023-05-10T04:54:39;17.63;;;10.90;;
70342;SDS011;57767;42.068;24.752;2023-05-10T04:55:41;26.10;;;12.25;;
70342;SDS011;57767;42.068;24.752;2023-05-10T04:56:43;19.42;;;11.98;;
70342;SDS011;57767;42.068;24.752;2023-05-10T04:57:45;15.02;;;10.07;;
70342;SDS011;57767;42.068;24.752;2023-05-10T04:58:46;13.75;;;10.80;;
70342;SDS011;57767;42.068;24.752;2023-05-10T04:59:48;17.98;;;10.48;;
70342;SDS011;57767;42.068;24.752;2023-05-10T05:00:50;17.77;;;10.55;;
70342;SDS011;57767;42.068;24.752;2023-05-10T05:01:52;20.55;;;11.93;;
70342;SDS011;57767;42.068;24.752;2023-05-10T05:02:54;15.43;;;10.30;;
70342;SDS011;57767;42.068;24.752;2023-05-10T05:03:56;19.00;;;11.73;;
70342;SDS011;57767;42.068;24.752;2023-05-10T05:04:58;15.02;;;11.55;;
70342;SDS011;57767;42.068;24.752;2023-05-10T05:06:00;18.80;;;11.32;;
70342;SDS011;57767;42.068;24.752;2023-05-10T05:07:01;14.90;;;10.30;;
70342;SDS011;57767;42.068;24.752;2023-05-10T05:08:03;17.95;;;9.75;;
70342;SDS011;57767;42.068;24.752;2023-05-10T05:09:05;15.45;;;9.90;;
70342;SDS011;57767;42.068;24.752;2023-05-10T05:10:07;14.80;;;10.48;;
70342;SDS011;57767;42.068;24.752;2023-05-10T05:11:10;16.42;;;10.27;;
70342;SDS011;57767;42.068;24.752;2023-05-10T05:12:11;18.65;;;10.70;;
70342;SDS011;57767;42.068;24.752;2023-05-10T05:13:15;17.98;;;10.75;;
70342;SDS011;57767;42.068;24.752;2023-05-10T05:14:17;15.00;;;11.00;;
70342;SDS011;57767;42.068;24.752;2023-05-10T05:15:19;16.42;;;10.18;;
70342;SDS011;57767;42.068;24.752;2023-05-10T05:16:21;12.80;;;10.00;;
70342;SDS011;57767;42.068;24.752;2023-05-10T05:17:22;13.57;;;10.57;;
70342;SDS011;57767;42.068;24.752;2023-05-10T05:18:24;12.95;;;9.82;;
70342;SDS011;57767;42.068;24.752;2023-05-10T05:19:26;17.65;;;10.00;;
70342;SDS011;57767;42.068;24.752;2023-05-10T05:20:31;14.60;;;10.73;;
70342;SDS011;57767;42.068;24.752;2023-05-10T05:21:34;17.40;;;10.85;;
70342;SDS011;57767;42.068;24.752;2023-05-10T05:22:36;15.25;;;10.40;;
70342;SDS011;57767;42.068;24.752;2023-05-10T05:23:38;18.92;;;9.55;;
70342;SDS011;57767;42.068;24.752;2023-05-10T05:24:40;15.93;;;9.73;;
70342;SDS011;57767;42.068;24.752;2023-05-10T05:25:42;14.35;;;9.25;;
70342;SDS011;57767;42.068;24.752;2023-05-10T05:26:44;15.57;;;9.68;;
70342;SDS011;57767;42.068;24.752;2023-05-10T05:27:45;13.65;;;10.07;;
70342;SDS011;57767;42.068;24.752;2023-05-10T05:28:47;16.10;;;9.50;;
70342;SDS011;57767;42.068;24.752;2023-05-10T05:29:50;14.07;;;9.38;;
70342;SDS011;57767;42.068;24.752;2023-05-10T05:30:54;13.25;;;9.02;;
70342;SDS011;57767;42.068;24.752;2023-05-10T05:31:55;12.73;;;9.98;;
70342;SDS011;57767;42.068;24.752;2023-05-10T05:32:57;16.02;;;9.55;;
70342;SDS011;57767;42.068;24.752;2023-05-10T05:33:59;15.93;;;10.68;;
70342;SDS011;57767;42.068;24.752;2023-05-10T05:35:01;11.50;;;9.48;;
70342;SDS011;57767;42.068;24.752;2023-05-10T05:36:03;11.40;;;9.30;;
70342;SDS011;57767;42.068;24.752;2023-05-10T05:37:06;13.73;;;8.63;;
70342;SDS011;57767;42.068;24.752;2023-05-10T05:38:08;17.17;;;9.60;;
70342;SDS011;57767;42.068;24.752;2023-05-10T05:39:10;12.02;;;10.00;;
70342;SDS011;57767;42.068;24.752;2023-05-10T05:40:12;15.63;;;9.32;;
70342;SDS011;57767;42.068;24.752;2023-05-10T05:41:15;16.67;;;9.55;;
70342;SDS011;57767;42.068;24.752;2023-05-10T05:42:17;15.05;;;9.38;;
70342;SDS011;57767;42.068;24.752;2023-05-10T05:43:20;15.00;;;9.73;;
70342;SDS011;57767;42.068;24.752;2023-05-10T05:44:21;14.43;;;9.63;;
70342;SDS011;57767;42.068;24.752;2023-05-10T05:45:23;14.75;;;10.00;;
70342;SDS011;57767;42.068;24.752;2023-05-10T05:46:25;15.48;;;10.13;;
70342;SDS011;57767;42.068;24.752;2023-05-10T05:47:27;17.30;;;10.32;;
70342;SDS011;57767;42.068;24.752;2023-05-10T05:48:32;14.57;;;10.65;;
70342;SDS011;57767;42.068;24.752;2023-05-10T05:49:33;16.25;;;9.90;;
70342;SDS011;57767;42.068;24.752;2023-05-10T05:50:35;13.48;;;10.93;;
70342;SDS011;57767;42.068;24.752;2023-05-10T05:51:37;17.60;;;10.85;;
70342;SDS011;57767;42.068;24.752;2023-05-10T05:52:39;15.27;;;10.30;;
70342;SDS011;57767;42.068;24.752;2023-05-10T05:53:40;15.75;;;11.38;;
70342;SDS011;57767;42.068;24.752;2023-05-10T05:54:42;17.15;;;11.40;;
70342;SDS011;57767;42.068;24.752;2023-05-10T05:55:54;20.27;;;11.95;;
70342;SDS011;57767;42.068;24.752;2023-05-10T05:56:57;15.50;;;11.45;;
70342;SDS011;57767;42.068;24.752;2023-05-10T05:58:01;17.75;;;10.80;;
70342;SDS011;57767;42.068;24.752;2023-05-10T05:59:03;14.60;;;11.00;;
70342;SDS011;57767;42.068;24.752;2023-05-10T06:00:05;12.90;;;10.57;;
70342;SDS011;57767;42.068;24.752;2023-05-10T06:01:07;19.92;;;10.30;;
70342;SDS011;57767;42.068;24.752;2023-05-10T06:02:10;14.07;;;10.90;;
70342;SDS011;57767;42.068;24.752;2023-05-10T06:03:12;14.80;;;10.80;;
70342;SDS011;57767;42.068;24.752;2023-05-10T06:04:14;13.95;;;9.75;;
70342;SDS011;57767;42.068;24.752;2023-05-10T06:05:16;15.50;;;11.00;;
70342;SDS011;57767;42.068;24.752;2023-05-10T06:06:18;19.63;;;10.52;;
70342;SDS011;57767;42.068;24.752;2023-05-10T06:07:20;15.25;;;10.15;;
70342;SDS011;57767;42.068;24.752;2023-05-10T06:08:22;17.85;;;10.30;;
70342;SDS011;57767;42.068;24.752;2023-05-10T06:09:24;12.90;;;9.27;;
70342;SDS011;57767;42.068;24.752;2023-05-10T06:10:25;15.55;;;10.30;;
70342;SDS011;57767;42.068;24.752;2023-05-10T06:11:27;15.10;;;10.65;;
70342;SDS011;57767;42.068;24.752;2023-05-10T06:12:29;14.27;;;10.68;;
70342;SDS011;57767;42.068;24.752;2023-05-10T06:13:32;13.45;;;10.13;;
70342;SDS011;57767;42.068;24.752;2023-05-10T06:14:36;13.02;;;9.40;;
70342;SDS011;57767;42.068;24.752;2023-05-10T06:15:38;12.70;;;9.93;;
70342;SDS011;57767;42.068;24.752;2023-05-10T06:16:40;13.45;;;9.80;;
70342;SDS011;57767;42.068;24.752;2023-05-10T06:17:41;14.88;;;10.32;;
70342;SDS011;57767;42.068;24.752;2023-05-10T06:18:44;16.60;;;9.57;;
70342;SDS011;57767;42.068;24.752;2023-05-10T06:19:46;11.52;;;9.48;;
70342;SDS011;57767;42.068;24.752;2023-05-10T06:20:49;16.48;;;9.35;;
70342;SDS011;57767;42.068;24.752;2023-05-10T06:21:51;14.48;;;9.15;;
70342;SDS011;57767;42.068;24.752;2023-05-10T06:22:54;17.73;;;8.73;;
70342;SDS011;57767;42.068;24.752;2023-05-10T06:23:56;13.00;;;8.27;;
70342;SDS011;57767;42.068;24.752;2023-05-10T06:24:58;11.95;;;8.07;;
70342;SDS011;57767;42.068;24.752;2023-05-10T06:25:59;14.25;;;8.05;;
70342;SDS011;57767;42.068;24.752;2023-05-10T06:27:01;12.73;;;8.10;;
70342;SDS011;57767;42.068;24.752;2023-05-10T06:28:03;12.48;;;8.13;;
70342;SDS011;57767;42.068;24.752;2023-05-10T06:29:05;12.40;;;8.80;;
70342;SDS011;57767;42.068;24.752;2023-05-10T06:30:07;15.35;;;9.25;;
70342;SDS011;57767;42.068;24.752;2023-05-10T06:31:13;12.98;;;8.65;;
70342;SDS011;57767;42.068;24.752;2023-05-10T06:32:15;13.77;;;8.80;;
70342;SDS011;57767;42.068;24.752;2023-05-10T06:33:17;11.50;;;8.07;;